createdAt,value
2023-05-12T00:01:55.549Z,12.47
2023-05-12T00:04:24.983Z,12.46
2023-05-12T00:06:53.938Z,12.33
2023-05-12T00:09:23.086Z,12.13
2023-05-12T00:11:52.571Z,12.09
2023-05-12T00:14:23.502Z,12.13
2023-05-12T00:16:53.075Z,11.97
2023-05-12T00:19:22.476Z,11.86
2023-05-12T00:21:51.434Z,12.08
2023-05-12T00:24:20.726Z,12.06
2023-05-12T00:26:49.832Z,12.04
2023-05-12T00:29:19.478Z,11.94
2023-05-12T00:31:49.923Z,11.78
2023-05-12T00:34:20.258Z,11.38
2023-05-12T00:36:50.042Z,10.90
2023-05-12T00:39:19.428Z,10.78
2023-05-12T00:41:50.581Z,10.81
2023-05-12T00:44:19.700Z,11.26
2023-05-12T00:46:51.960Z,10.86
2023-05-12T00:49:22.112Z,11.33
2023-05-12T00:51:51.244Z,11.35
2023-05-12T00:54:20.660Z,11.20
2023-05-12T00:56:50.261Z,11.11
2023-05-12T00:59:22.262Z,11.09
2023-05-12T01:01:52.752Z,11.09
2023-05-12T01:04:22.068Z,11.09
2023-05-12T01:06:56.909Z,11.06
2023-05-12T01:09:26.254Z,11.07
2023-05-12T01:11:55.370Z,10.97
2023-05-12T01:14:24.595Z,10.91
2023-05-12T01:17:00.172Z,10.92
2023-05-12T01:19:42.629Z,10.94
2023-05-12T01:22:13.663Z,10.92
2023-05-12T01:24:49.375Z,10.80
2023-05-12T01:27:22.352Z,10.91
2023-05-12T01:29:52.462Z,10.81
2023-05-12T01:32:23.025Z,10.91
2023-05-12T01:34:52.136Z,11.03
2023-05-12T01:37:22.300Z,10.91
2023-05-12T01:39:51.856Z,10.32
2023-05-12T01:42:24.601Z,10.98
2023-05-12T01:44:53.976Z,11.14
2023-05-12T01:47:23.184Z,11.02
2023-05-12T01:49:59.146Z,11.16
2023-05-12T01:52:28.943Z,11.12
2023-05-12T01:54:57.922Z,10.56
2023-05-12T01:57:30.329Z,10.29
2023-05-12T02:00:01.589Z,10.30
2023-05-12T02:02:34.098Z,10.33
2023-05-12T02:05:03.669Z,10.11
2023-05-12T02:07:32.860Z,10.09
2023-05-12T02:10:02.042Z,10.11
2023-05-12T02:12:34.685Z,10.27
2023-05-12T02:15:04.316Z,10.38
2023-05-12T02:17:35.356Z,10.39
2023-05-12T02:20:09.558Z,11.03
2023-05-12T02:22:38.653Z,11.28
2023-05-12T02:25:08.712Z,11.29
2023-05-12T02:27:39.876Z,11.19
2023-05-12T02:30:10.100Z,11.28
2023-05-12T02:32:39.141Z,11.35
2023-05-12T02:35:13.131Z,11.37
2023-05-12T02:37:42.757Z,11.20
2023-05-12T02:40:12.726Z,11.06
2023-05-12T02:42:45.603Z,11.32
2023-05-12T02:45:14.808Z,11.03
2023-05-12T02:47:44.048Z,10.98
2023-05-12T02:50:13.337Z,10.84
2023-05-12T02:52:42.848Z,11.04
2023-05-12T02:55:15.297Z,10.97
2023-05-12T02:57:45.682Z,10.82
2023-05-12T03:00:15.796Z,10.97
2023-05-12T03:02:44.961Z,11.02
2023-05-12T03:05:14.151Z,10.82
2023-05-12T03:07:43.400Z,11.16
2023-05-12T03:10:12.580Z,10.97
2023-05-12T03:12:42.308Z,10.89
2023-05-12T03:15:13.178Z,10.88
2023-05-12T03:17:42.591Z,11.04
2023-05-12T03:20:12.504Z,11.08
2023-05-12T03:22:41.458Z,11.26
2023-05-12T03:25:11.818Z,11.22
2023-05-12T03:27:40.902Z,11.31
2023-05-12T03:30:13.568Z,11.14
2023-05-12T03:32:42.673Z,11.44
2023-05-12T03:35:13.425Z,11.25
2023-05-12T03:37:42.442Z,11.17
2023-05-12T03:40:19.723Z,11.25
2023-05-12T03:42:49.300Z,10.68
2023-05-12T03:45:22.272Z,10.60
2023-05-12T03:47:52.204Z,10.75
2023-05-12T03:50:21.526Z,10.76
2023-05-12T03:52:50.819Z,10.84
2023-05-12T03:55:23.389Z,10.77
2023-05-12T03:57:52.339Z,10.42
2023-05-12T04:00:23.286Z,10.92
2023-05-12T04:02:52.664Z,11.48
2023-05-12T04:05:21.666Z,11.06
2023-05-12T04:07:50.760Z,11.12
2023-05-12T04:10:30.679Z,11.02
2023-05-12T04:13:02.916Z,11.23
2023-05-12T04:15:36.570Z,11.42
2023-05-12T04:18:08.756Z,11.50
2023-05-12T04:20:39.027Z,11.58
2023-05-12T04:23:10.213Z,11.66
2023-05-12T04:25:41.101Z,11.65
2023-05-12T04:28:12.232Z,11.77
2023-05-12T04:30:46.087Z,11.97
2023-05-12T04:33:15.159Z,11.91
2023-05-12T04:35:44.750Z,11.99
2023-05-12T04:38:15.178Z,11.87
2023-05-12T04:40:45.453Z,12.69
2023-05-12T04:45:48.075Z,11.98
2023-05-12T04:48:17.236Z,12.86
2023-05-12T04:50:46.201Z,13.12
2023-05-12T04:53:18.302Z,13.12
2023-05-12T04:55:47.802Z,13.54
2023-05-12T04:58:18.325Z,13.66
2023-05-12T05:00:49.032Z,13.79
2023-05-12T05:03:18.576Z,13.89
2023-05-12T05:05:49.201Z,13.84
2023-05-12T05:08:19.141Z,13.57
2023-05-12T05:10:48.392Z,13.86
2023-05-12T05:13:17.878Z,14.11
2023-05-12T05:15:56.430Z,14.13
2023-05-12T05:18:27.603Z,14.23
2023-05-12T05:20:59.090Z,14.40
2023-05-12T05:23:28.804Z,14.26
2023-05-12T05:25:58.328Z,14.66
2023-05-12T05:28:27.726Z,14.72
2023-05-12T05:30:58.325Z,14.87
2023-05-12T05:33:27.562Z,14.90
2023-05-12T05:35:57.095Z,14.91
2023-05-12T05:38:26.425Z,15.12
2023-05-12T05:40:55.730Z,15.36
2023-05-12T05:43:26.801Z,15.38
2023-05-12T05:46:02.947Z,15.50
2023-05-12T05:48:36.488Z,15.47
2023-05-12T05:51:06.416Z,15.58
2023-05-12T05:53:35.873Z,16.04
2023-05-12T05:56:05.590Z,15.82
2023-05-12T05:58:37.714Z,15.36
2023-05-12T06:01:09.038Z,15.81
2023-05-12T06:03:39.859Z,16.10
2023-05-12T06:06:09.581Z,16.30
2023-05-12T06:08:38.903Z,16.23
2023-05-12T06:11:08.446Z,16.47
2023-05-12T06:13:38.006Z,16.44
2023-05-12T06:16:08.766Z,16.52
2023-05-12T06:18:38.783Z,16.35
2023-05-12T06:21:10.806Z,16.33
2023-05-12T06:23:40.615Z,16.51
2023-05-12T06:26:09.684Z,16.88
2023-05-12T06:28:38.776Z,16.43
2023-05-12T06:31:10.134Z,16.93
2023-05-12T06:33:39.156Z,16.95
2023-05-12T06:36:10.665Z,17.40
2023-05-12T06:38:39.894Z,17.17
2023-05-12T06:41:09.183Z,17.35
2023-05-12T06:43:38.207Z,17.49
2023-05-12T06:46:23.017Z,17.43
2023-05-12T06:48:56.566Z,17.58
2023-05-12T06:51:27.841Z,17.66
2023-05-12T06:53:57.154Z,17.42
2023-05-12T06:56:26.142Z,18.05
2023-05-12T06:59:01.034Z,17.78
2023-05-12T07:01:34.255Z,17.81
2023-05-12T07:04:03.766Z,17.75
2023-05-12T07:06:34.633Z,17.77
2023-05-12T07:09:04.491Z,17.65
2023-05-12T07:11:33.567Z,17.84
2023-05-12T07:14:04.570Z,17.81
2023-05-12T07:16:36.628Z,17.86
2023-05-12T07:19:09.909Z,18.59
2023-05-12T07:21:39.404Z,18.46
2023-05-12T07:24:09.534Z,17.93
2023-05-12T07:26:39.144Z,18.42
2023-05-12T07:29:12.882Z,18.74
2023-05-12T07:31:44.865Z,18.90
2023-05-12T07:34:13.965Z,19.01
2023-05-12T07:36:43.354Z,19.25
2023-05-12T07:39:13.795Z,18.68
2023-05-12T07:41:43.079Z,18.74
2023-05-12T07:44:12.529Z,18.95
2023-05-12T07:46:41.829Z,19.31
2023-05-12T07:49:12.319Z,19.58
2023-05-12T07:51:41.621Z,19.83
2023-05-12T07:54:12.465Z,19.45
2023-05-12T07:56:42.110Z,19.38
2023-05-12T07:59:13.311Z,19.43
2023-05-12T08:01:42.517Z,19.50
2023-05-12T08:04:12.956Z,19.86
2023-05-12T08:06:42.260Z,20.19
2023-05-12T08:09:15.431Z,20.14
2023-05-12T08:11:59.244Z,20.00
2023-05-12T08:14:48.273Z,19.61
2023-05-12T08:17:17.460Z,19.99
2023-05-12T08:19:47.804Z,20.04
2023-05-12T08:22:16.944Z,20.75
2023-05-12T08:24:47.569Z,20.57
2023-05-12T08:27:16.807Z,19.34
2023-05-12T08:29:50.611Z,19.42
2023-05-12T08:32:19.984Z,19.45
2023-05-12T08:34:50.650Z,19.57
2023-05-12T08:37:20.988Z,20.26
2023-05-12T08:39:51.234Z,20.22
2023-05-12T08:42:31.608Z,20.21
2023-05-12T08:45:02.168Z,20.16
2023-05-12T08:47:34.240Z,20.77
2023-05-12T08:50:06.556Z,20.17
2023-05-12T08:52:37.069Z,20.30
2023-05-12T08:55:07.179Z,20.85
2023-05-12T08:57:38.939Z,20.43
2023-05-12T09:00:10.689Z,20.14
2023-05-12T09:02:52.071Z,19.83
2023-05-12T09:05:24.246Z,20.50
2023-05-12T09:07:55.952Z,20.29
2023-05-12T09:10:35.283Z,21.34
2023-05-12T09:13:14.062Z,21.32
2023-05-12T09:15:46.697Z,20.12
2023-05-12T09:18:15.862Z,20.34
2023-05-12T09:20:46.381Z,21.56
2023-05-12T09:23:16.632Z,22.10
2023-05-12T09:25:47.125Z,22.19
2023-05-12T09:28:19.178Z,22.36
2023-05-12T09:30:48.178Z,23.55
2023-05-12T09:33:17.689Z,23.13
2023-05-12T09:35:50.466Z,23.06
2023-05-12T09:38:20.488Z,23.31
2023-05-12T09:40:50.065Z,23.38
2023-05-12T09:43:19.444Z,22.60
2023-05-12T09:45:50.313Z,21.38
2023-05-12T09:48:19.422Z,22.93
2023-05-12T09:50:51.270Z,22.97
2023-05-12T09:53:23.026Z,22.62
2023-05-12T09:55:52.750Z,23.47
2023-05-12T09:58:23.442Z,22.67
2023-05-12T10:03:31.711Z,22.07
2023-05-12T10:06:07.001Z,22.46
2023-05-12T10:08:43.319Z,22.36
2023-05-12T10:11:12.815Z,22.29
2023-05-12T10:13:42.126Z,23.61
2023-05-12T10:16:18.756Z,27.75
2023-05-12T10:18:48.408Z,28.65
2023-05-12T10:21:24.877Z,25.60
2023-05-12T10:23:57.598Z,25.62
2023-05-12T10:26:27.803Z,29.23
2023-05-12T10:29:03.710Z,29.10
2023-05-12T10:31:46.998Z,31.00
2023-05-12T10:34:24.917Z,26.13
2023-05-12T10:36:57.117Z,27.31
2023-05-12T10:39:35.074Z,31.76
2023-05-12T10:42:08.511Z,33.43
2023-05-12T10:44:38.733Z,35.09
2023-05-12T10:47:15.283Z,33.92
2023-05-12T10:49:46.711Z,33.02
2023-05-12T10:52:21.518Z,29.33
2023-05-12T10:54:50.394Z,27.59
2023-05-12T10:57:22.265Z,34.00
2023-05-12T11:00:13.076Z,32.48
2023-05-12T11:02:52.116Z,28.35
2023-05-12T11:05:24.519Z,25.87
2023-05-12T11:07:55.389Z,28.58
2023-05-12T11:10:24.783Z,25.71
2023-05-12T11:12:58.014Z,25.50
2023-05-12T11:15:29.501Z,25.19
2023-05-12T11:18:03.126Z,26.62
2023-05-12T11:20:32.685Z,29.91
2023-05-12T11:23:03.893Z,26.60
2023-05-12T11:25:37.298Z,26.64
2023-05-12T11:28:12.402Z,27.95
2023-05-12T11:30:52.473Z,31.14
2023-05-12T11:33:25.747Z,27.62
2023-05-12T11:35:58.415Z,26.21
2023-05-12T11:38:29.014Z,26.47
2023-05-12T11:40:58.100Z,25.16
2023-05-12T11:43:29.323Z,25.47
2023-05-12T11:45:59.888Z,25.07
2023-05-12T11:48:35.194Z,24.52
2023-05-12T11:51:05.444Z,24.68
2023-05-12T11:53:41.534Z,24.48
2023-05-12T11:56:19.776Z,24.57
2023-05-12T11:58:56.924Z,24.22
2023-05-12T12:01:26.555Z,24.21
2023-05-12T12:03:56.820Z,23.88
2023-05-12T12:06:26.071Z,23.56
2023-05-12T12:08:58.017Z,23.22
2023-05-12T12:11:28.469Z,23.86
2023-05-12T12:13:58.858Z,25.13
2023-05-12T12:16:31.360Z,32.74
2023-05-12T12:19:01.814Z,34.53
2023-05-12T12:21:35.074Z,36.28
2023-05-12T12:24:09.825Z,36.89
2023-05-12T12:26:39.659Z,38.95
2023-05-12T12:29:09.112Z,39.19
2023-05-12T12:31:42.728Z,36.81
2023-05-12T12:34:16.154Z,30.62
2023-05-12T12:36:50.093Z,29.12
2023-05-12T12:39:21.823Z,28.08
2023-05-12T12:41:51.066Z,27.33
2023-05-12T12:44:20.043Z,27.33
2023-05-12T12:46:49.138Z,27.53
2023-05-12T12:49:19.419Z,27.08
2023-05-12T12:51:48.494Z,26.42
2023-05-12T12:54:18.032Z,25.87
2023-05-12T12:56:49.191Z,25.73
2023-05-12T12:59:18.246Z,25.05
2023-05-12T13:01:48.494Z,25.06
2023-05-12T13:04:22.523Z,25.02
2023-05-12T13:06:54.752Z,31.46
2023-05-12T13:09:24.533Z,35.48
2023-05-12T13:11:58.391Z,36.87
2023-05-12T13:14:27.663Z,36.71
2023-05-12T13:16:57.771Z,37.51
2023-05-12T13:19:30.141Z,38.69
2023-05-12T13:22:02.511Z,38.72
2023-05-12T13:24:34.581Z,37.80
2023-05-12T13:27:09.213Z,37.73
2023-05-12T13:29:38.501Z,38.65
2023-05-12T13:32:09.297Z,37.97
2023-05-12T13:34:39.372Z,37.58
2023-05-12T13:37:08.759Z,38.67
2023-05-12T13:39:42.051Z,38.15
2023-05-12T13:42:17.511Z,39.10
2023-05-12T13:44:58.057Z,37.72
2023-05-12T13:47:31.173Z,37.40
2023-05-12T13:50:00.674Z,36.20
2023-05-12T13:52:34.106Z,37.24
2023-05-12T13:55:09.745Z,39.40
2023-05-12T13:57:40.810Z,39.00
2023-05-12T14:00:11.834Z,37.53
2023-05-12T14:02:50.877Z,38.92
2023-05-12T14:05:26.974Z,37.95
2023-05-12T14:07:57.215Z,38.76
2023-05-12T14:10:30.944Z,37.53
2023-05-12T14:13:02.639Z,38.42
2023-05-12T14:15:44.737Z,37.16
2023-05-12T14:18:18.049Z,37.00
2023-05-12T14:20:48.355Z,36.47
2023-05-12T14:23:20.306Z,35.02
2023-05-12T14:25:49.395Z,37.61
2023-05-12T14:28:22.685Z,38.16
2023-05-12T14:30:54.403Z,37.96
2023-05-12T14:33:25.980Z,36.15
2023-05-12T14:36:06.579Z,37.72
2023-05-12T14:38:38.098Z,37.49
2023-05-12T14:41:08.571Z,37.21
2023-05-12T14:43:39.544Z,37.95
2023-05-12T14:46:09.002Z,36.13
2023-05-12T14:48:38.335Z,37.72
2023-05-12T14:51:08.213Z,37.68
2023-05-12T14:53:37.180Z,37.85
2023-05-12T14:56:07.178Z,37.07
2023-05-12T14:58:36.455Z,36.96
2023-05-12T15:01:10.220Z,38.38
2023-05-12T15:03:39.768Z,38.10
2023-05-12T15:06:11.739Z,37.57
2023-05-12T15:08:43.828Z,37.92
2023-05-12T15:11:13.427Z,36.09
2023-05-12T15:13:43.280Z,33.08
2023-05-12T15:16:14.596Z,36.39
2023-05-12T15:18:44.434Z,37.30
2023-05-12T15:21:15.725Z,36.19
2023-05-12T15:23:45.313Z,35.95
2023-05-12T15:26:32.244Z,35.99
2023-05-12T15:29:03.631Z,36.29
2023-05-12T15:31:34.628Z,36.27
2023-05-12T15:34:04.805Z,35.92
2023-05-12T15:36:33.971Z,35.11
2023-05-12T15:39:05.564Z,29.83
2023-05-12T15:41:35.126Z,27.91
2023-05-12T15:44:04.360Z,26.81
2023-05-12T15:46:37.245Z,26.36
2023-05-12T15:49:08.146Z,26.23
2023-05-12T15:51:41.727Z,25.90
2023-05-12T15:54:12.453Z,25.28
2023-05-12T15:56:42.196Z,25.32
2023-05-12T15:59:12.648Z,25.57
2023-05-12T16:01:44.119Z,25.63
2023-05-12T16:04:14.367Z,24.26
2023-05-12T16:06:44.519Z,23.86
2023-05-12T16:09:14.170Z,23.79
2023-05-12T16:11:44.948Z,24.41
2023-05-12T16:14:15.434Z,23.60
2023-05-12T16:16:48.590Z,23.22
2023-05-12T16:19:18.569Z,23.50
2023-05-12T16:21:47.937Z,23.43
2023-05-12T16:24:17.923Z,23.48
2023-05-12T16:26:48.202Z,23.52
2023-05-12T16:29:18.561Z,23.24
2023-05-12T16:31:51.042Z,22.89
2023-05-12T16:34:20.646Z,22.89
2023-05-12T16:36:50.242Z,23.04
2023-05-12T16:39:19.798Z,22.81
2023-05-12T16:41:49.786Z,22.24
2023-05-12T16:44:19.332Z,22.16
2023-05-12T16:46:53.500Z,21.96
2023-05-12T16:49:23.147Z,21.82
2023-05-12T16:51:52.185Z,21.43
2023-05-12T16:54:21.426Z,21.61
2023-05-12T16:56:50.492Z,21.93
2023-05-12T16:59:19.925Z,21.69
2023-05-12T17:01:55.020Z,21.30
2023-05-12T17:04:25.505Z,21.06
2023-05-12T17:06:59.852Z,20.97
2023-05-12T17:09:30.133Z,20.95
2023-05-12T17:12:00.018Z,20.87
2023-05-12T17:14:30.430Z,20.70
2023-05-12T17:17:01.542Z,20.33
2023-05-12T17:19:30.647Z,20.62
2023-05-12T17:21:59.952Z,20.09
2023-05-12T17:24:29.275Z,20.34
2023-05-12T17:26:58.876Z,19.99
2023-05-12T17:29:28.493Z,20.00
2023-05-12T17:31:57.893Z,20.06
2023-05-12T17:34:31.217Z,20.21
2023-05-12T17:37:00.409Z,20.38
2023-05-12T17:39:29.689Z,20.29
2023-05-12T17:41:59.245Z,20.14
2023-05-12T17:44:32.340Z,19.87
2023-05-12T17:47:02.278Z,19.72
2023-05-12T17:49:36.442Z,19.52
2023-05-12T17:52:06.566Z,19.33
2023-05-12T17:54:42.505Z,19.26
2023-05-12T17:57:12.409Z,19.25
2023-05-12T17:59:48.251Z,19.19
2023-05-12T18:02:18.779Z,18.86
2023-05-12T18:05:01.501Z,18.90
2023-05-12T18:07:34.077Z,18.79
2023-05-12T18:10:04.439Z,18.78
2023-05-12T18:12:37.033Z,18.57
2023-05-12T18:15:15.717Z,18.76
2023-05-12T18:17:50.396Z,18.64
2023-05-12T18:20:21.199Z,18.49
2023-05-12T18:22:51.805Z,18.39
2023-05-12T18:25:21.640Z,18.62
2023-05-12T18:27:51.408Z,18.55
2023-05-12T18:30:21.830Z,18.52
2023-05-12T18:32:52.508Z,18.48
2023-05-12T18:35:24.903Z,18.62
2023-05-12T18:37:55.852Z,18.85
2023-05-12T18:40:25.397Z,18.88
2023-05-12T18:42:54.987Z,18.79
2023-05-12T18:45:24.683Z,18.68
2023-05-12T18:47:54.382Z,18.44
2023-05-12T18:50:28.483Z,18.36
2023-05-12T18:53:00.132Z,18.01
2023-05-12T18:55:32.322Z,18.30
2023-05-12T18:58:05.677Z,17.92
2023-05-12T19:00:41.363Z,18.02
2023-05-12T19:03:14.209Z,18.06
2023-05-12T19:06:23.951Z,18.10
2023-05-12T19:08:55.440Z,17.72
2023-05-12T19:11:28.326Z,17.57
2023-05-12T19:14:02.886Z,17.58
2023-05-12T19:16:36.473Z,17.86
2023-05-12T19:19:07.754Z,17.64
2023-05-12T19:21:40.857Z,17.54
2023-05-12T19:24:14.257Z,16.71
2023-05-12T19:26:47.754Z,17.16
2023-05-12T19:29:37.523Z,16.61
2023-05-12T19:32:09.036Z,17.11
2023-05-12T19:34:42.177Z,16.77
2023-05-12T19:37:13.926Z,16.72
2023-05-12T19:40:19.044Z,16.72
2023-05-12T19:42:44.338Z,16.53
2023-05-12T19:45:13.573Z,16.48
2023-05-12T19:47:48.473Z,16.18
2023-05-12T19:50:18.877Z,15.81
2023-05-12T19:52:51.414Z,16.38
2023-05-12T19:55:24.075Z,16.26
2023-05-12T19:57:59.279Z,16.11
2023-05-12T20:00:30.050Z,15.53
2023-05-12T20:02:59.630Z,15.58
2023-05-12T20:05:28.963Z,15.27
2023-05-12T20:08:08.126Z,15.69
2023-05-12T20:10:39.285Z,15.79
2023-05-12T20:13:12.793Z,15.77
2023-05-12T20:15:44.292Z,15.53
2023-05-12T20:18:15.758Z,15.66
2023-05-12T20:20:45.197Z,15.88
2023-05-12T20:23:18.731Z,15.66
2023-05-12T20:25:48.357Z,15.54
2023-05-12T20:28:24.089Z,15.63
2023-05-12T20:30:54.424Z,15.22
2023-05-12T20:33:23.736Z,15.80
2023-05-12T20:35:55.093Z,15.88
2023-05-12T20:38:27.826Z,15.87
2023-05-12T20:41:03.703Z,15.30
2023-05-12T20:43:33.451Z,15.31
2023-05-12T20:46:07.481Z,15.26
2023-05-12T20:48:49.687Z,15.43
2023-05-12T20:51:22.374Z,15.49
2023-05-12T20:53:54.830Z,15.51
2023-05-12T20:56:24.116Z,15.51
2023-05-12T20:58:57.756Z,15.48
2023-05-12T21:01:31.280Z,15.32
2023-05-12T21:04:01.226Z,15.36
2023-05-12T21:06:33.482Z,15.50
2023-05-12T21:09:06.081Z,15.35
2023-05-12T21:11:35.136Z,15.44
2023-05-12T21:14:05.573Z,15.31
2023-05-12T21:16:34.614Z,15.39
2023-05-12T21:19:03.933Z,15.45
2023-05-12T21:21:33.063Z,15.23
2023-05-12T21:24:04.025Z,15.01
2023-05-12T21:26:33.534Z,15.23
2023-05-12T21:29:03.666Z,14.86
2023-05-12T21:31:33.899Z,14.95
2023-05-12T21:34:03.448Z,14.96
2023-05-12T21:36:33.793Z,14.90
2023-05-12T21:39:06.719Z,14.86
2023-05-12T21:41:39.012Z,14.84
2023-05-12T21:44:11.451Z,14.71
2023-05-12T21:46:40.588Z,14.26
2023-05-12T21:49:10.107Z,14.23
2023-05-12T21:51:39.623Z,13.98
2023-05-12T21:54:09.976Z,13.98
2023-05-12T21:56:38.897Z,13.81
2023-05-12T21:59:08.026Z,13.85
2023-05-12T22:01:37.312Z,13.43
2023-05-12T22:04:07.338Z,13.32
2023-05-12T22:06:36.443Z,13.73
2023-05-12T22:09:05.883Z,13.30
2023-05-12T22:11:38.677Z,13.14
2023-05-12T22:14:07.709Z,13.42
2023-05-12T22:16:41.900Z,13.66
2023-05-12T22:19:11.640Z,13.15
2023-05-12T22:21:40.994Z,13.41
2023-05-12T22:24:11.259Z,13.53
2023-05-12T22:26:41.708Z,13.51
2023-05-12T22:29:10.647Z,12.89
2023-05-12T22:31:42.588Z,13.03
2023-05-12T22:34:11.778Z,13.00
2023-05-12T22:36:40.774Z,12.93
2023-05-12T22:39:10.065Z,12.98
2023-05-12T22:41:39.111Z,13.16
2023-05-12T22:44:09.889Z,12.64
2023-05-12T22:46:38.913Z,13.36
2023-05-12T22:49:07.839Z,13.27
2023-05-12T22:51:36.890Z,13.36
2023-05-12T22:54:06.176Z,13.42
2023-05-12T22:56:35.857Z,13.21
2023-05-12T22:59:04.929Z,13.11
2023-05-12T23:01:35.118Z,13.36
2023-05-12T23:04:04.146Z,13.27
2023-05-12T23:06:33.552Z,13.26
2023-05-12T23:09:02.561Z,13.17
2023-05-12T23:11:31.864Z,13.31
2023-05-12T23:14:00.924Z,12.84
2023-05-12T23:16:32.126Z,13.01
2023-05-12T23:19:02.578Z,13.15
2023-05-12T23:21:31.805Z,13.12
2023-05-12T23:24:01.080Z,13.01
2023-05-12T23:26:30.188Z,12.94
2023-05-12T23:29:00.716Z,12.93
2023-05-12T23:31:29.691Z,12.75
2023-05-12T23:33:58.610Z,12.03
2023-05-12T23:36:29.052Z,11.65
2023-05-12T23:38:57.920Z,12.25
2023-05-12T23:41:26.957Z,11.88
2023-05-12T23:43:57.723Z,12.15
2023-05-12T23:46:27.146Z,12.26
2023-05-12T23:48:58.053Z,12.35
2023-05-12T23:51:29.945Z,12.47
2023-05-12T23:53:58.922Z,12.55
2023-05-12T23:56:27.954Z,12.84
2023-05-12T23:58:56.942Z,12.70
